Winslow Park, Kentucky
Current Conditions -  °F | °C
As of 4:55 AM on Thursday 27 Nov 2014 (Local Time) from K5M9 Reporting Station
Overcast Overcast  
Wind Chill: 23°   Ceiling: 700
Heat Index: 32°   Visibility: 10mi
Dew Point: 31°   Wind: 12mph
Humidity: 97%   Direction: 340°NNW
Pressure: 30.28"   Gusts: NA
Location:  37.3359°N, 88.1049°W
Report Text: K5M9 271055Z AUTO 34010KT 10SM BKN007 OVC013 00/M01 A3028 RMK AO2 T10021006
Loading
Personal Weather Stations






























Interactive Weather Map New forecast layout! Learn more

10-Day Weather Forecast

Advertisements
Track Severe Weather on mobile